This is the latest recevied weather packets stored in our database for station/object TG5ALY-15. If no packets are shown the sender has not sent any weather packets the latest 10 day(s).
| Time | Temp. | Humidity | Pressure | Rain* | Wind** | Luminosity | Snow |
|---|---|---|---|---|---|---|---|
| 1777705424 | 11.67° C | 90% | 1029.2 hPa | 0 mm | - | 0 W/m² | - |
| 1777704222 | 12.22° C | 93% | 1029.5 hPa | 0 mm | - | 0 W/m² | - |
| 1777703023 | 12.22° C | 93% | 1029.5 hPa | 0 mm | - | 0 W/m² | - |
| 1777701822 | 12.22° C | 92% | 1029.5 hPa | 0 mm | - | 0 W/m² | - |
| 1777700619 | 12.78° C | 92% | 1029.9 hPa | 0 mm | - | 0 W/m² | - |
| 1777699415 | 12.78° C | 91% | 1029.9 hPa | 0 mm | - | 0 W/m² | - |
| 1777698215 | 13.33° C | 90% | 1030.4 hPa | 0 mm | - | 0 W/m² | - |
| 1777697013 | 13.89° C | 87% | 1030.4 hPa | 0 mm | - | 0 W/m² | - |
| 1777695811 | 14.44° C | 86% | 1030.4 hPa | 0 mm | - | 0 W/m² | - |
| 1777694606 | 14.44° C | 87% | 1030.4 hPa | 0 mm | - | 0 W/m² | - |
| 1777693406 | 14.44° C | 86% | 1029.5 hPa | 0 mm | - | 0 W/m² | - |
| 1777692206 | 15° C | 84% | 1029.5 hPa | 0 mm | - | 0 W/m² | - |
| 1777691004 | 15° C | 79% | 1028.7 hPa | 0 mm | - | 0 W/m² | - |
| 1777689799 | 15.56° C | 77% | 1028.7 hPa | 0 mm | - | 0 W/m² | - |
| 1777688594 | 15.56° C | 76% | 1028.7 hPa | 0 mm | - | 0 W/m² | - |
| 1777670575 | 21.11° C | 51% | 1024.8 hPa | 0 mm | - | 246 W/m² | - |
| 1777669375 | 21.67° C | 48% | 1024.8 hPa | 0 mm | - | 633 W/m² | - |
| 1777665773 | 23.33° C | 44% | 1025.2 hPa | 0 mm | - | 912 W/m² | - |
| 1777663370 | 22.78° C | 36% | 1026.1 hPa | 0 mm | - | 910 W/m² | - |
| 1777659762 | 22.78° C | 33% | 1027.4 hPa | 0 mm | - | 995 W/m² | - |
| 1777656158 | 20.56° C | 47% | 1028.3 hPa | 0 mm | - | 971 W/m² | - |
| 1777653752 | 19.44° C | 52% | 1028.7 hPa | 0 mm | - | 943 W/m² | - |
| 1777652549 | 18.89° C | 61% | 1028.7 hPa | 0 mm | - | 388 W/m² | - |
| 1777651348 | 18.89° C | 60% | 1029.2 hPa | 0 mm | - | 932 W/m² | - |
| 1777650148 | 18.33° C | 66% | 1028.7 hPa | 0 mm | - | 260 W/m² | - |
* Rain latest hour (hover to see other rain measurements)
** Current wind speed in m/s (hover to see current wind gust speed)